sensor_id;sensor_type;location;lat;lon;timestamp;P1;durP1;ratioP1;P2;durP2;ratioP2
27822;SDS011;29019;47.630;8.262;2024-02-04T00:03:22;13.02;;;6.30;;
27822;SDS011;29019;47.630;8.262;2024-02-04T00:07:26;12.68;;;6.25;;
27822;SDS011;29019;47.630;8.262;2024-02-04T00:15:29;13.32;;;5.97;;
27822;SDS011;29019;47.630;8.262;2024-02-04T00:19:30;9.82;;;5.97;;
27822;SDS011;29019;47.630;8.262;2024-02-04T00:23:31;11.38;;;6.00;;
27822;SDS011;29019;47.630;8.262;2024-02-04T00:31:34;9.68;;;5.32;;
27822;SDS011;29019;47.630;8.262;2024-02-04T00:35:35;10.95;;;6.05;;
27822;SDS011;29019;47.630;8.262;2024-02-04T00:39:36;10.80;;;5.97;;
27822;SDS011;29019;47.630;8.262;2024-02-04T00:43:38;12.02;;;5.70;;
27822;SDS011;29019;47.630;8.262;2024-02-04T00:47:39;10.80;;;5.63;;
27822;SDS011;29019;47.630;8.262;2024-02-04T00:55:42;10.32;;;5.55;;
27822;SDS011;29019;47.630;8.262;2024-02-04T00:59:45;9.80;;;5.63;;
27822;SDS011;29019;47.630;8.262;2024-02-04T01:03:46;12.55;;;5.68;;
27822;SDS011;29019;47.630;8.262;2024-02-04T01:07:48;76.78;;;17.13;;
27822;SDS011;29019;47.630;8.262;2024-02-04T01:15:50;48.90;;;13.73;;
27822;SDS011;29019;47.630;8.262;2024-02-04T01:19:51;55.90;;;13.05;;
27822;SDS011;29019;47.630;8.262;2024-02-04T01:27:54;21.90;;;5.70;;
27822;SDS011;29019;47.630;8.262;2024-02-04T01:35:56;10.23;;;3.08;;
27822;SDS011;29019;47.630;8.262;2024-02-04T01:39:59;8.45;;;3.45;;
27822;SDS011;29019;47.630;8.262;2024-02-04T01:44:00;5.10;;;1.77;;
27822;SDS011;29019;47.630;8.262;2024-02-04T01:48:01;12.13;;;2.20;;
27822;SDS011;29019;47.630;8.262;2024-02-04T01:56:05;7.65;;;2.00;;
27822;SDS011;29019;47.630;8.262;2024-02-04T02:00:07;6.32;;;2.67;;
27822;SDS011;29019;47.630;8.262;2024-02-04T02:04:09;3.58;;;2.03;;
27822;SDS011;29019;47.630;8.262;2024-02-04T02:08:10;7.03;;;2.47;;
27822;SDS011;29019;47.630;8.262;2024-02-04T02:12:16;3.58;;;1.73;;
27822;SDS011;29019;47.630;8.262;2024-02-04T02:16:22;4.78;;;1.90;;
27822;SDS011;29019;47.630;8.262;2024-02-04T02:20:27;4.32;;;1.65;;
27822;SDS011;29019;47.630;8.262;2024-02-04T02:24:41;4.15;;;1.83;;
27822;SDS011;29019;47.630;8.262;2024-02-04T02:28:42;9.75;;;2.53;;
27822;SDS011;29019;47.630;8.262;2024-02-04T02:32:43;6.97;;;2.20;;
27822;SDS011;29019;47.630;8.262;2024-02-04T02:36:49;4.63;;;1.80;;
27822;SDS011;29019;47.630;8.262;2024-02-04T02:40:58;4.57;;;1.83;;
27822;SDS011;29019;47.630;8.262;2024-02-04T02:44:59;5.88;;;2.45;;
27822;SDS011;29019;47.630;8.262;2024-02-04T02:49:01;4.20;;;1.55;;
27822;SDS011;29019;47.630;8.262;2024-02-04T02:53:02;3.78;;;1.52;;
27822;SDS011;29019;47.630;8.262;2024-02-04T02:57:03;6.47;;;2.10;;
27822;SDS011;29019;47.630;8.262;2024-02-04T03:01:04;4.25;;;1.45;;
27822;SDS011;29019;47.630;8.262;2024-02-04T03:05:05;2.95;;;1.73;;
27822;SDS011;29019;47.630;8.262;2024-02-04T03:09:06;5.10;;;1.50;;
27822;SDS011;29019;47.630;8.262;2024-02-04T03:13:06;3.13;;;1.30;;
27822;SDS011;29019;47.630;8.262;2024-02-04T03:17:07;4.13;;;1.83;;
27822;SDS011;29019;47.630;8.262;2024-02-04T03:21:14;4.18;;;1.75;;
27822;SDS011;29019;47.630;8.262;2024-02-04T03:25:15;4.07;;;1.40;;
27822;SDS011;29019;47.630;8.262;2024-02-04T03:29:16;4.83;;;1.40;;
27822;SDS011;29019;47.630;8.262;2024-02-04T03:33:17;4.03;;;1.40;;
27822;SDS011;29019;47.630;8.262;2024-02-04T03:37:17;4.25;;;1.98;;
27822;SDS011;29019;47.630;8.262;2024-02-04T03:41:18;3.47;;;1.58;;
27822;SDS011;29019;47.630;8.262;2024-02-04T03:45:19;3.53;;;1.30;;
27822;SDS011;29019;47.630;8.262;2024-02-04T03:49:19;8.23;;;1.20;;
27822;SDS011;29019;47.630;8.262;2024-02-04T03:53:21;3.47;;;1.33;;
27822;SDS011;29019;47.630;8.262;2024-02-04T03:57:23;5.13;;;1.48;;
27822;SDS011;29019;47.630;8.262;2024-02-04T04:01:23;5.57;;;1.50;;
27822;SDS011;29019;47.630;8.262;2024-02-04T04:05:24;6.18;;;1.40;;
27822;SDS011;29019;47.630;8.262;2024-02-04T04:09:26;5.93;;;1.23;;
27822;SDS011;29019;47.630;8.262;2024-02-04T04:13:27;5.00;;;1.70;;
27822;SDS011;29019;47.630;8.262;2024-02-04T04:17:27;7.97;;;1.60;;
27822;SDS011;29019;47.630;8.262;2024-02-04T04:21:28;5.23;;;1.43;;
27822;SDS011;29019;47.630;8.262;2024-02-04T04:25:29;3.50;;;1.30;;
27822;SDS011;29019;47.630;8.262;2024-02-04T04:29:29;2.93;;;1.37;;
27822;SDS011;29019;47.630;8.262;2024-02-04T04:33:30;3.27;;;1.27;;
27822;SDS011;29019;47.630;8.262;2024-02-04T04:37:31;3.35;;;1.38;;
27822;SDS011;29019;47.630;8.262;2024-02-04T04:41:31;4.15;;;1.73;;
27822;SDS011;29019;47.630;8.262;2024-02-04T04:45:32;5.55;;;1.60;;
27822;SDS011;29019;47.630;8.262;2024-02-04T04:49:32;2.47;;;1.40;;
27822;SDS011;29019;47.630;8.262;2024-02-04T04:53:33;3.67;;;1.67;;
27822;SDS011;29019;47.630;8.262;2024-02-04T04:57:34;3.33;;;1.23;;
27822;SDS011;29019;47.630;8.262;2024-02-04T05:01:34;5.30;;;1.60;;
27822;SDS011;29019;47.630;8.262;2024-02-04T05:05:35;2.58;;;1.40;;
27822;SDS011;29019;47.630;8.262;2024-02-04T05:09:36;5.10;;;2.28;;
27822;SDS011;29019;47.630;8.262;2024-02-04T05:13:38;2.88;;;1.30;;
27822;SDS011;29019;47.630;8.262;2024-02-04T05:17:39;4.53;;;1.35;;
27822;SDS011;29019;47.630;8.262;2024-02-04T05:21:40;2.87;;;1.20;;
27822;SDS011;29019;47.630;8.262;2024-02-04T05:25:41;3.80;;;1.80;;
27822;SDS011;29019;47.630;8.262;2024-02-04T05:29:41;2.73;;;1.50;;
27822;SDS011;29019;47.630;8.262;2024-02-04T05:33:42;4.63;;;1.50;;
27822;SDS011;29019;47.630;8.262;2024-02-04T05:37:43;2.83;;;1.17;;
27822;SDS011;29019;47.630;8.262;2024-02-04T05:41:43;3.17;;;1.60;;
27822;SDS011;29019;47.630;8.262;2024-02-04T05:45:44;3.90;;;1.67;;
27822;SDS011;29019;47.630;8.262;2024-02-04T05:49:45;3.38;;;1.73;;
27822;SDS011;29019;47.630;8.262;2024-02-04T05:53:46;3.83;;;1.50;;
27822;SDS011;29019;47.630;8.262;2024-02-04T05:57:47;2.17;;;1.10;;
27822;SDS011;29019;47.630;8.262;2024-02-04T06:01:48;3.00;;;1.33;;
27822;SDS011;29019;47.630;8.262;2024-02-04T06:05:48;1.77;;;1.00;;
27822;SDS011;29019;47.630;8.262;2024-02-04T06:09:49;2.83;;;1.47;;
27822;SDS011;29019;47.630;8.262;2024-02-04T06:13:50;3.28;;;1.50;;
27822;SDS011;29019;47.630;8.262;2024-02-04T06:17:50;3.42;;;1.00;;
27822;SDS011;29019;47.630;8.262;2024-02-04T06:21:51;4.57;;;1.50;;
27822;SDS011;29019;47.630;8.262;2024-02-04T06:25:52;4.07;;;1.40;;
27822;SDS011;29019;47.630;8.262;2024-02-04T06:29:52;2.80;;;1.50;;
27822;SDS011;29019;47.630;8.262;2024-02-04T06:33:53;3.73;;;1.43;;
27822;SDS011;29019;47.630;8.262;2024-02-04T06:37:54;1.75;;;1.10;;
27822;SDS011;29019;47.630;8.262;2024-02-04T06:41:55;1.70;;;1.20;;
27822;SDS011;29019;47.630;8.262;2024-02-04T06:45:55;3.88;;;1.35;;
27822;SDS011;29019;47.630;8.262;2024-02-04T06:49:56;3.10;;;1.25;;
27822;SDS011;29019;47.630;8.262;2024-02-04T06:53:57;4.97;;;1.60;;
27822;SDS011;29019;47.630;8.262;2024-02-04T06:57:57;1.88;;;1.20;;
27822;SDS011;29019;47.630;8.262;2024-02-04T07:01:58;3.08;;;1.65;;
27822;SDS011;29019;47.630;8.262;2024-02-04T07:05:59;3.00;;;1.42;;
27822;SDS011;29019;47.630;8.262;2024-02-04T07:14:01;1.87;;;1.17;;
27822;SDS011;29019;47.630;8.262;2024-02-04T07:18:01;2.22;;;1.35;;
27822;SDS011;29019;47.630;8.262;2024-02-04T07:22:02;3.42;;;1.30;;
27822;SDS011;29019;47.630;8.262;2024-02-04T07:26:03;2.78;;;1.30;;
27822;SDS011;29019;47.630;8.262;2024-02-04T07:30:04;2.05;;;1.23;;
27822;SDS011;29019;47.630;8.262;2024-02-04T07:34:06;2.40;;;1.20;;
27822;SDS011;29019;47.630;8.262;2024-02-04T07:38:06;2.55;;;1.25;;
27822;SDS011;29019;47.630;8.262;2024-02-04T07:42:07;1.83;;;0.90;;
27822;SDS011;29019;47.630;8.262;2024-02-04T07:46:08;2.28;;;1.52;;
27822;SDS011;29019;47.630;8.262;2024-02-04T07:50:08;2.67;;;1.30;;
27822;SDS011;29019;47.630;8.262;2024-02-04T07:54:10;2.40;;;1.00;;
27822;SDS011;29019;47.630;8.262;2024-02-04T07:58:11;3.38;;;1.27;;
27822;SDS011;29019;47.630;8.262;2024-02-04T08:02:12;1.65;;;1.23;;
27822;SDS011;29019;47.630;8.262;2024-02-04T08:06:12;1.98;;;1.00;;
27822;SDS011;29019;47.630;8.262;2024-02-04T08:10:13;2.20;;;1.23;;
27822;SDS011;29019;47.630;8.262;2024-02-04T08:14:15;2.13;;;0.90;;
27822;SDS011;29019;47.630;8.262;2024-02-04T08:18:17;2.00;;;1.20;;
27822;SDS011;29019;47.630;8.262;2024-02-04T08:22:18;3.15;;;1.13;;
27822;SDS011;29019;47.630;8.262;2024-02-04T08:26:19;3.03;;;1.25;;
27822;SDS011;29019;47.630;8.262;2024-02-04T08:30:20;2.33;;;0.90;;
27822;SDS011;29019;47.630;8.262;2024-02-04T08:34:21;2.08;;;0.82;;
27822;SDS011;29019;47.630;8.262;2024-02-04T08:38:24;2.45;;;1.20;;
27822;SDS011;29019;47.630;8.262;2024-02-04T08:42:24;1.73;;;0.98;;
27822;SDS011;29019;47.630;8.262;2024-02-04T08:46:25;2.00;;;1.03;;
27822;SDS011;29019;47.630;8.262;2024-02-04T08:50:26;1.65;;;1.15;;
27822;SDS011;29019;47.630;8.262;2024-02-04T08:54:26;1.80;;;1.02;;
27822;SDS011;29019;47.630;8.262;2024-02-04T08:58:27;1.47;;;0.90;;
27822;SDS011;29019;47.630;8.262;2024-02-04T09:02:28;1.60;;;0.90;;
27822;SDS011;29019;47.630;8.262;2024-02-04T09:06:28;1.75;;;0.88;;
27822;SDS011;29019;47.630;8.262;2024-02-04T09:10:29;1.60;;;0.90;;
27822;SDS011;29019;47.630;8.262;2024-02-04T09:14:30;1.73;;;1.13;;
27822;SDS011;29019;47.630;8.262;2024-02-04T09:18:30;1.35;;;0.80;;
27822;SDS011;29019;47.630;8.262;2024-02-04T09:22:31;2.22;;;0.80;;
27822;SDS011;29019;47.630;8.262;2024-02-04T09:26:32;1.13;;;1.00;;
27822;SDS011;29019;47.630;8.262;2024-02-04T09:30:32;2.22;;;1.00;;
27822;SDS011;29019;47.630;8.262;2024-02-04T09:34:33;0.85;;;0.70;;
27822;SDS011;29019;47.630;8.262;2024-02-04T09:38:34;1.80;;;0.80;;
27822;SDS011;29019;47.630;8.262;2024-02-04T09:42:34;0.93;;;0.63;;
27822;SDS011;29019;47.630;8.262;2024-02-04T09:46:35;2.70;;;1.20;;
27822;SDS011;29019;47.630;8.262;2024-02-04T09:50:36;1.00;;;0.77;;
27822;SDS011;29019;47.630;8.262;2024-02-04T09:54:47;1.92;;;0.90;;
27822;SDS011;29019;47.630;8.262;2024-02-04T09:58:50;2.45;;;1.08;;
27822;SDS011;29019;47.630;8.262;2024-02-04T10:02:53;1.17;;;0.80;;
27822;SDS011;29019;47.630;8.262;2024-02-04T10:06:55;2.20;;;0.80;;
27822;SDS011;29019;47.630;8.262;2024-02-04T10:10:56;1.67;;;0.90;;
27822;SDS011;29019;47.630;8.262;2024-02-04T10:14:58;1.45;;;0.88;;
27822;SDS011;29019;47.630;8.262;2024-02-04T10:18:59;1.30;;;0.70;;
27822;SDS011;29019;47.630;8.262;2024-02-04T10:23:01;1.23;;;0.75;;
27822;SDS011;29019;47.630;8.262;2024-02-04T10:27:01;1.30;;;0.80;;
27822;SDS011;29019;47.630;8.262;2024-02-04T10:31:04;1.30;;;0.80;;
27822;SDS011;29019;47.630;8.262;2024-02-04T10:35:04;0.70;;;0.50;;
27822;SDS011;29019;47.630;8.262;2024-02-04T10:39:05;1.20;;;0.85;;
27822;SDS011;29019;47.630;8.262;2024-02-04T10:43:06;1.08;;;0.70;;
27822;SDS011;29019;47.630;8.262;2024-02-04T10:47:09;1.60;;;0.70;;
27822;SDS011;29019;47.630;8.262;2024-02-04T10:51:14;1.20;;;0.80;;
27822;SDS011;29019;47.630;8.262;2024-02-04T10:55:16;1.55;;;0.98;;
27822;SDS011;29019;47.630;8.262;2024-02-04T10:59:21;1.40;;;1.08;;
27822;SDS011;29019;47.630;8.262;2024-02-04T11:03:23;1.73;;;1.00;;
27822;SDS011;29019;47.630;8.262;2024-02-04T11:07:28;1.83;;;0.90;;
27822;SDS011;29019;47.630;8.262;2024-02-04T11:11:34;1.02;;;0.60;;
27822;SDS011;29019;47.630;8.262;2024-02-04T11:15:36;0.75;;;0.68;;
27822;SDS011;29019;47.630;8.262;2024-02-04T11:19:51;1.25;;;0.68;;
27822;SDS011;29019;47.630;8.262;2024-02-04T11:28:37;1.33;;;0.75;;
27822;SDS011;29019;47.630;8.262;2024-02-04T11:32:39;0.98;;;0.60;;
27822;SDS011;29019;47.630;8.262;2024-02-04T11:36:40;1.17;;;0.70;;
27822;SDS011;29019;47.630;8.262;2024-02-04T11:40:41;1.08;;;0.68;;
27822;SDS011;29019;47.630;8.262;2024-02-04T11:48:50;1.00;;;0.60;;
27822;SDS011;29019;47.630;8.262;2024-02-04T11:53:00;0.70;;;0.50;;
27822;SDS011;29019;47.630;8.262;2024-02-04T11:57:11;1.02;;;0.82;;
27822;SDS011;29019;47.630;8.262;2024-02-04T12:01:11;1.25;;;0.95;;
27822;SDS011;29019;47.630;8.262;2024-02-04T12:05:12;0.80;;;0.80;;
27822;SDS011;29019;47.630;8.262;2024-02-04T12:13:18;0.80;;;0.50;;
27822;SDS011;29019;47.630;8.262;2024-02-04T12:17:20;0.85;;;0.52;;
27822;SDS011;29019;47.630;8.262;2024-02-04T12:21:21;0.43;;;0.40;;
27822;SDS011;29019;47.630;8.262;2024-02-04T12:25:22;1.40;;;0.50;;
27822;SDS011;29019;47.630;8.262;2024-02-04T12:29:26;0.75;;;0.68;;
27822;SDS011;29019;47.630;8.262;2024-02-04T12:33:27;1.05;;;0.63;;
27822;SDS011;29019;47.630;8.262;2024-02-04T12:37:28;1.00;;;0.52;;
27822;SDS011;29019;47.630;8.262;2024-02-04T12:41:30;0.77;;;0.50;;
27822;SDS011;29019;47.630;8.262;2024-02-04T12:45:31;0.65;;;0.55;;
27822;SDS011;29019;47.630;8.262;2024-02-04T12:49:31;0.95;;;0.60;;
27822;SDS011;29019;47.630;8.262;2024-02-04T12:53:33;0.65;;;0.60;;
27822;SDS011;29019;47.630;8.262;2024-02-04T12:57:34;0.63;;;0.60;;
27822;SDS011;29019;47.630;8.262;2024-02-04T13:01:35;0.93;;;0.50;;
27822;SDS011;29019;47.630;8.262;2024-02-04T13:05:37;0.88;;;0.63;;
27822;SDS011;29019;47.630;8.262;2024-02-04T13:09:38;0.50;;;0.45;;
27822;SDS011;29019;47.630;8.262;2024-02-04T13:13:39;1.27;;;0.70;;
27822;SDS011;29019;47.630;8.262;2024-02-04T13:17:40;1.80;;;0.77;;
27822;SDS011;29019;47.630;8.262;2024-02-04T13:21:41;0.45;;;0.43;;
27822;SDS011;29019;47.630;8.262;2024-02-04T13:25:41;0.90;;;0.70;;
27822;SDS011;29019;47.630;8.262;2024-02-04T13:29:42;1.50;;;0.50;;
27822;SDS011;29019;47.630;8.262;2024-02-04T13:33:43;1.23;;;0.75;;
27822;SDS011;29019;47.630;8.262;2024-02-04T13:37:44;0.70;;;0.60;;
27822;SDS011;29019;47.630;8.262;2024-02-04T13:41:51;0.95;;;0.50;;
27822;SDS011;29019;47.630;8.262;2024-02-04T13:45:52;0.65;;;0.65;;
27822;SDS011;29019;47.630;8.262;2024-02-04T13:49:53;0.50;;;0.45;;
27822;SDS011;29019;47.630;8.262;2024-02-04T13:53:55;0.90;;;0.40;;
27822;SDS011;29019;47.630;8.262;2024-02-04T13:57:56;0.93;;;0.77;;
27822;SDS011;29019;47.630;8.262;2024-02-04T14:01:57;0.63;;;0.43;;
27822;SDS011;29019;47.630;8.262;2024-02-04T14:05:57;0.80;;;0.50;;
27822;SDS011;29019;47.630;8.262;2024-02-04T14:09:58;0.77;;;0.68;;
27822;SDS011;29019;47.630;8.262;2024-02-04T14:13:59;0.80;;;0.60;;
27822;SDS011;29019;47.630;8.262;2024-02-04T14:17:59;0.73;;;0.50;;
27822;SDS011;29019;47.630;8.262;2024-02-04T14:22:00;0.70;;;0.70;;
27822;SDS011;29019;47.630;8.262;2024-02-04T14:26:01;0.80;;;0.50;;
27822;SDS011;29019;47.630;8.262;2024-02-04T14:30:03;0.73;;;0.50;;
27822;SDS011;29019;47.630;8.262;2024-02-04T14:34:04;0.70;;;0.60;;
27822;SDS011;29019;47.630;8.262;2024-02-04T14:38:04;0.73;;;0.52;;
27822;SDS011;29019;47.630;8.262;2024-02-04T14:42:05;0.70;;;0.40;;
27822;SDS011;29019;47.630;8.262;2024-02-04T14:46:06;0.50;;;0.40;;
27822;SDS011;29019;47.630;8.262;2024-02-04T14:50:08;0.30;;;0.30;;
27822;SDS011;29019;47.630;8.262;2024-02-04T14:54:09;0.75;;;0.40;;
27822;SDS011;29019;47.630;8.262;2024-02-04T14:58:10;0.60;;;0.50;;
27822;SDS011;29019;47.630;8.262;2024-02-04T15:02:10;0.40;;;0.40;;
27822;SDS011;29019;47.630;8.262;2024-02-04T15:06:11;0.73;;;0.50;;
27822;SDS011;29019;47.630;8.262;2024-02-04T15:10:12;0.60;;;0.40;;
27822;SDS011;29019;47.630;8.262;2024-02-04T15:14:13;0.52;;;0.40;;
27822;SDS011;29019;47.630;8.262;2024-02-04T15:18:13;0.50;;;0.50;;
27822;SDS011;29019;47.630;8.262;2024-02-04T15:22:14;0.40;;;0.40;;
27822;SDS011;29019;47.630;8.262;2024-02-04T15:26:15;0.35;;;0.35;;
27822;SDS011;29019;47.630;8.262;2024-02-04T15:30:16;0.50;;;0.40;;
27822;SDS011;29019;47.630;8.262;2024-02-04T15:34:18;0.50;;;0.50;;
27822;SDS011;29019;47.630;8.262;2024-02-04T15:38:19;0.60;;;0.40;;
27822;SDS011;29019;47.630;8.262;2024-02-04T15:42:20;1.08;;;0.47;;
27822;SDS011;29019;47.630;8.262;2024-02-04T15:46:21;0.40;;;0.40;;
27822;SDS011;29019;47.630;8.262;2024-02-04T15:50:24;0.50;;;0.50;;
27822;SDS011;29019;47.630;8.262;2024-02-04T15:54:25;1.33;;;0.60;;
27822;SDS011;29019;47.630;8.262;2024-02-04T15:58:27;0.77;;;0.45;;
27822;SDS011;29019;47.630;8.262;2024-02-04T16:02:30;0.40;;;0.40;;
27822;SDS011;29019;47.630;8.262;2024-02-04T16:06:31;0.43;;;0.43;;
27822;SDS011;29019;47.630;8.262;2024-02-04T16:14:36;0.63;;;0.50;;
27822;SDS011;29019;47.630;8.262;2024-02-04T16:18:42;0.60;;;0.30;;
27822;SDS011;29019;47.630;8.262;2024-02-04T16:22:43;0.52;;;0.50;;
27822;SDS011;29019;47.630;8.262;2024-02-04T16:26:43;0.50;;;0.50;;
27822;SDS011;29019;47.630;8.262;2024-02-04T16:30:44;0.47;;;0.45;;
27822;SDS011;29019;47.630;8.262;2024-02-04T16:34:45;0.40;;;0.40;;
27822;SDS011;29019;47.630;8.262;2024-02-04T16:38:46;0.30;;;0.30;;
27822;SDS011;29019;47.630;8.262;2024-02-04T16:42:46;0.40;;;0.40;;
27822;SDS011;29019;47.630;8.262;2024-02-04T16:46:47;0.35;;;0.35;;
27822;SDS011;29019;47.630;8.262;2024-02-04T16:50:48;0.50;;;0.50;;
27822;SDS011;29019;47.630;8.262;2024-02-04T16:54:50;0.43;;;0.40;;
27822;SDS011;29019;47.630;8.262;2024-02-04T16:58:51;1.20;;;0.60;;
27822;SDS011;29019;47.630;8.262;2024-02-04T17:02:51;0.50;;;0.40;;
27822;SDS011;29019;47.630;8.262;2024-02-04T17:06:53;0.45;;;0.30;;
27822;SDS011;29019;47.630;8.262;2024-02-04T17:10:54;0.43;;;0.43;;
27822;SDS011;29019;47.630;8.262;2024-02-04T17:14:55;0.40;;;0.40;;
27822;SDS011;29019;47.630;8.262;2024-02-04T17:23:09;0.30;;;0.30;;
27822;SDS011;29019;47.630;8.262;2024-02-04T17:27:13;0.70;;;0.50;;
27822;SDS011;29019;47.630;8.262;2024-02-04T17:31:15;0.45;;;0.38;;
27822;SDS011;29019;47.630;8.262;2024-02-04T17:35:16;0.80;;;0.43;;
27822;SDS011;29019;47.630;8.262;2024-02-04T17:39:20;0.35;;;0.30;;
27822;SDS011;29019;47.630;8.262;2024-02-04T17:43:21;0.50;;;0.50;;
27822;SDS011;29019;47.630;8.262;2024-02-04T17:47:22;0.30;;;0.30;;
27822;SDS011;29019;47.630;8.262;2024-02-04T17:51:24;0.40;;;0.40;;
27822;SDS011;29019;47.630;8.262;2024-02-04T17:55:25;0.57;;;0.40;;
27822;SDS011;29019;47.630;8.262;2024-02-04T17:59:26;0.40;;;0.35;;
27822;SDS011;29019;47.630;8.262;2024-02-04T18:03:26;0.33;;;0.33;;
27822;SDS011;29019;47.630;8.262;2024-02-04T18:07:27;0.60;;;0.47;;
27822;SDS011;29019;47.630;8.262;2024-02-04T18:11:28;0.80;;;0.50;;
27822;SDS011;29019;47.630;8.262;2024-02-04T18:15:29;1.27;;;0.73;;
27822;SDS011;29019;47.630;8.262;2024-02-04T18:19:33;1.02;;;0.80;;
27822;SDS011;29019;47.630;8.262;2024-02-04T18:23:34;1.10;;;0.90;;
27822;SDS011;29019;47.630;8.262;2024-02-04T18:27:35;1.63;;;0.70;;
27822;SDS011;29019;47.630;8.262;2024-02-04T18:31:36;1.13;;;0.80;;
27822;SDS011;29019;47.630;8.262;2024-02-04T18:35:38;1.63;;;0.70;;
27822;SDS011;29019;47.630;8.262;2024-02-04T18:39:39;1.83;;;1.00;;
27822;SDS011;29019;47.630;8.262;2024-02-04T18:43:41;0.90;;;0.75;;
27822;SDS011;29019;47.630;8.262;2024-02-04T18:47:42;1.38;;;0.95;;
27822;SDS011;29019;47.630;8.262;2024-02-04T18:51:42;1.33;;;1.08;;
27822;SDS011;29019;47.630;8.262;2024-02-04T18:55:43;7.20;;;2.20;;
27822;SDS011;29019;47.630;8.262;2024-02-04T18:59:44;4.18;;;2.40;;
27822;SDS011;29019;47.630;8.262;2024-02-04T19:03:45;6.45;;;3.00;;
27822;SDS011;29019;47.630;8.262;2024-02-04T19:07:47;3.20;;;2.47;;
27822;SDS011;29019;47.630;8.262;2024-02-04T19:11:50;5.45;;;2.97;;
27822;SDS011;29019;47.630;8.262;2024-02-04T19:15:51;8.85;;;2.63;;
27822;SDS011;29019;47.630;8.262;2024-02-04T19:19:52;8.50;;;3.40;;
27822;SDS011;29019;47.630;8.262;2024-02-04T19:23:53;7.95;;;3.65;;
27822;SDS011;29019;47.630;8.262;2024-02-04T19:27:57;6.93;;;3.40;;
27822;SDS011;29019;47.630;8.262;2024-02-04T19:31:58;9.60;;;3.45;;
27822;SDS011;29019;47.630;8.262;2024-02-04T19:35:58;7.05;;;2.67;;
27822;SDS011;29019;47.630;8.262;2024-02-04T19:39:59;5.93;;;2.90;;
27822;SDS011;29019;47.630;8.262;2024-02-04T19:44:00;4.85;;;2.47;;
27822;SDS011;29019;47.630;8.262;2024-02-04T19:48:01;3.88;;;2.70;;
27822;SDS011;29019;47.630;8.262;2024-02-04T19:52:01;6.25;;;3.25;;
27822;SDS011;29019;47.630;8.262;2024-02-04T19:56:02;3.65;;;2.53;;
27822;SDS011;29019;47.630;8.262;2024-02-04T20:00:03;7.90;;;2.72;;
27822;SDS011;29019;47.630;8.262;2024-02-04T20:04:07;5.53;;;2.83;;
27822;SDS011;29019;47.630;8.262;2024-02-04T20:08:09;9.60;;;2.35;;
27822;SDS011;29019;47.630;8.262;2024-02-04T20:12:09;4.18;;;2.15;;
27822;SDS011;29019;47.630;8.262;2024-02-04T20:16:10;4.93;;;2.13;;
27822;SDS011;29019;47.630;8.262;2024-02-04T20:20:12;5.50;;;2.40;;
27822;SDS011;29019;47.630;8.262;2024-02-04T20:24:13;4.80;;;1.90;;
27822;SDS011;29019;47.630;8.262;2024-02-04T20:28:13;4.57;;;2.17;;
27822;SDS011;29019;47.630;8.262;2024-02-04T20:32:14;4.05;;;2.30;;
27822;SDS011;29019;47.630;8.262;2024-02-04T20:36:15;3.78;;;2.40;;
27822;SDS011;29019;47.630;8.262;2024-02-04T20:40:16;4.93;;;2.63;;
27822;SDS011;29019;47.630;8.262;2024-02-04T20:44:17;16.40;;;2.20;;
27822;SDS011;29019;47.630;8.262;2024-02-04T20:48:17;5.72;;;3.05;;
27822;SDS011;29019;47.630;8.262;2024-02-04T20:52:18;4.10;;;2.22;;
27822;SDS011;29019;47.630;8.262;2024-02-04T20:56:19;9.00;;;2.30;;
27822;SDS011;29019;47.630;8.262;2024-02-04T21:00:20;8.13;;;2.00;;
27822;SDS011;29019;47.630;8.262;2024-02-04T21:04:21;5.90;;;2.10;;
27822;SDS011;29019;47.630;8.262;2024-02-04T21:08:22;3.53;;;1.83;;
27822;SDS011;29019;47.630;8.262;2024-02-04T21:12:22;4.78;;;2.30;;
27822;SDS011;29019;47.630;8.262;2024-02-04T21:16:23;3.10;;;2.05;;
27822;SDS011;29019;47.630;8.262;2024-02-04T21:20:24;4.80;;;2.30;;
27822;SDS011;29019;47.630;8.262;2024-02-04T21:28:26;3.50;;;2.57;;
27822;SDS011;29019;47.630;8.262;2024-02-04T21:32:29;3.20;;;1.90;;
27822;SDS011;29019;47.630;8.262;2024-02-04T21:36:30;5.10;;;1.95;;
27822;SDS011;29019;47.630;8.262;2024-02-04T21:40:30;7.47;;;1.90;;
27822;SDS011;29019;47.630;8.262;2024-02-04T21:44:31;8.43;;;2.30;;
27822;SDS011;29019;47.630;8.262;2024-02-04T21:48:33;6.75;;;2.10;;
27822;SDS011;29019;47.630;8.262;2024-02-04T21:52:33;3.58;;;2.00;;
27822;SDS011;29019;47.630;8.262;2024-02-04T21:56:34;5.47;;;2.00;;
27822;SDS011;29019;47.630;8.262;2024-02-04T22:00:35;7.22;;;1.70;;
27822;SDS011;29019;47.630;8.262;2024-02-04T22:04:37;4.07;;;1.83;;
27822;SDS011;29019;47.630;8.262;2024-02-04T22:08:37;2.88;;;2.10;;
27822;SDS011;29019;47.630;8.262;2024-02-04T22:12:38;3.30;;;1.90;;
27822;SDS011;29019;47.630;8.262;2024-02-04T22:16:39;2.67;;;2.05;;
27822;SDS011;29019;47.630;8.262;2024-02-04T22:24:41;4.63;;;1.93;;
27822;SDS011;29019;47.630;8.262;2024-02-04T22:28:42;3.92;;;1.60;;
27822;SDS011;29019;47.630;8.262;2024-02-04T22:32:43;3.80;;;2.05;;
27822;SDS011;29019;47.630;8.262;2024-02-04T22:36:44;5.95;;;1.83;;
27822;SDS011;29019;47.630;8.262;2024-02-04T22:40:44;3.17;;;1.88;;
27822;SDS011;29019;47.630;8.262;2024-02-04T22:44:45;4.93;;;1.92;;
27822;SDS011;29019;47.630;8.262;2024-02-04T22:48:45;10.52;;;1.90;;
27822;SDS011;29019;47.630;8.262;2024-02-04T22:52:46;5.22;;;1.73;;
27822;SDS011;29019;47.630;8.262;2024-02-04T22:56:47;8.27;;;2.17;;
27822;SDS011;29019;47.630;8.262;2024-02-04T23:00:48;2.38;;;1.60;;
27822;SDS011;29019;47.630;8.262;2024-02-04T23:04:49;2.95;;;1.70;;
27822;SDS011;29019;47.630;8.262;2024-02-04T23:08:49;5.18;;;1.80;;
27822;SDS011;29019;47.630;8.262;2024-02-04T23:12:50;9.03;;;1.50;;
27822;SDS011;29019;47.630;8.262;2024-02-04T23:16:51;4.07;;;1.70;;
27822;SDS011;29019;47.630;8.262;2024-02-04T23:20:52;5.22;;;2.30;;
27822;SDS011;29019;47.630;8.262;2024-02-04T23:24:53;1.67;;;1.48;;
27822;SDS011;29019;47.630;8.262;2024-02-04T23:28:53;4.43;;;2.75;;
27822;SDS011;29019;47.630;8.262;2024-02-04T23:32:54;3.72;;;2.17;;
27822;SDS011;29019;47.630;8.262;2024-02-04T23:36:55;2.15;;;1.30;;
27822;SDS011;29019;47.630;8.262;2024-02-04T23:40:56;2.80;;;1.48;;
27822;SDS011;29019;47.630;8.262;2024-02-04T23:44:56;4.75;;;1.40;;
27822;SDS011;29019;47.630;8.262;2024-02-04T23:48:57;1.63;;;1.15;;
27822;SDS011;29019;47.630;8.262;2024-02-04T23:52:58;2.10;;;1.25;;
27822;SDS011;29019;47.630;8.262;2024-02-04T23:56:59;3.65;;;1.60;;
